sensor_id;sensor_type;location;lat;lon;timestamp;pressure;altitude;pressure_sealevel;temperature;humidity
37694;BME280;23531;50.122;8.644;2022-09-01T00:01:36;100913.44;;;19.37;nan
37694;BME280;23531;50.122;8.644;2022-09-01T00:03:40;100910.13;;;19.35;nan
37694;BME280;23531;50.122;8.644;2022-09-01T00:05:42;100905.97;;;19.28;nan
37694;BME280;23531;50.122;8.644;2022-09-01T00:07:45;100906.94;;;19.16;nan
37694;BME280;23531;50.122;8.644;2022-09-01T00:09:47;100908.94;;;19.26;nan
37694;BME280;23531;50.122;8.644;2022-09-01T00:11:51;100907.03;;;19.27;nan
37694;BME280;23531;50.122;8.644;2022-09-01T00:13:54;100901.34;;;19.28;nan
37694;BME280;23531;50.122;8.644;2022-09-01T00:18:00;100915.16;;;19.21;nan
37694;BME280;23531;50.122;8.644;2022-09-01T00:20:01;100910.91;;;19.09;nan
37694;BME280;23531;50.122;8.644;2022-09-01T00:22:03;100912.06;;;19.13;nan
37694;BME280;23531;50.122;8.644;2022-09-01T00:24:06;100915.00;;;19.06;nan
37694;BME280;23531;50.122;8.644;2022-09-01T00:26:08;100905.75;;;19.07;nan
37694;BME280;23531;50.122;8.644;2022-09-01T00:28:09;100911.72;;;19.09;nan
37694;BME280;23531;50.122;8.644;2022-09-01T00:30:11;100915.16;;;19.00;nan
37694;BME280;23531;50.122;8.644;2022-09-01T00:32:14;100917.38;;;19.03;nan
37694;BME280;23531;50.122;8.644;2022-09-01T00:34:16;100913.09;;;19.07;nan
37694;BME280;23531;50.122;8.644;2022-09-01T00:36:18;100911.59;;;18.99;nan
37694;BME280;23531;50.122;8.644;2022-09-01T00:38:20;100916.22;;;18.99;nan
37694;BME280;23531;50.122;8.644;2022-09-01T00:40:21;100909.78;;;19.05;nan
37694;BME280;23531;50.122;8.644;2022-09-01T00:42:23;100917.63;;;19.01;nan
37694;BME280;23531;50.122;8.644;2022-09-01T00:44:24;100910.22;;;18.97;nan
37694;BME280;23531;50.122;8.644;2022-09-01T00:46:28;100910.66;;;18.89;nan
37694;BME280;23531;50.122;8.644;2022-09-01T00:48:32;100909.91;;;18.93;nan
37694;BME280;23531;50.122;8.644;2022-09-01T00:50:36;100905.28;;;18.94;nan
37694;BME280;23531;50.122;8.644;2022-09-01T00:52:40;100902.31;;;18.95;nan
37694;BME280;23531;50.122;8.644;2022-09-01T00:54:45;100897.38;;;18.92;nan
37694;BME280;23531;50.122;8.644;2022-09-01T00:56:48;100905.91;;;18.79;nan
37694;BME280;23531;50.122;8.644;2022-09-01T00:58:50;100905.66;;;18.80;nan
37694;BME280;23531;50.122;8.644;2022-09-01T01:00:53;100905.56;;;18.75;nan
37694;BME280;23531;50.122;8.644;2022-09-01T01:02:55;100909.66;;;18.73;nan
37694;BME280;23531;50.122;8.644;2022-09-01T01:04:57;100906.97;;;18.78;nan
37694;BME280;23531;50.122;8.644;2022-09-01T01:07:00;100897.09;;;18.72;nan
37694;BME280;23531;50.122;8.644;2022-09-01T01:09:02;100900.13;;;18.75;nan
37694;BME280;23531;50.122;8.644;2022-09-01T01:11:07;100901.53;;;18.78;nan
37694;BME280;23531;50.122;8.644;2022-09-01T01:13:10;100903.63;;;18.71;nan
37694;BME280;23531;50.122;8.644;2022-09-01T01:15:13;100896.28;;;18.71;nan
37694;BME280;23531;50.122;8.644;2022-09-01T01:17:20;100898.59;;;18.63;nan
37694;BME280;23531;50.122;8.644;2022-09-01T01:19:25;100894.78;;;18.64;nan
37694;BME280;23531;50.122;8.644;2022-09-01T01:21:47;100894.56;;;18.65;nan
37694;BME280;23531;50.122;8.644;2022-09-01T01:24:21;100887.66;;;18.58;nan
37694;BME280;23531;50.122;8.644;2022-09-01T01:26:23;100893.41;;;18.44;nan
37694;BME280;23531;50.122;8.644;2022-09-01T01:28:26;100886.41;;;18.48;nan
37694;BME280;23531;50.122;8.644;2022-09-01T01:30:31;100886.41;;;18.48;nan
37694;BME280;23531;50.122;8.644;2022-09-01T01:32:36;100884.59;;;18.37;nan
37694;BME280;23531;50.122;8.644;2022-09-01T01:34:42;100887.47;;;18.47;nan
37694;BME280;23531;50.122;8.644;2022-09-01T01:36:46;100886.91;;;18.45;nan
37694;BME280;23531;50.122;8.644;2022-09-01T01:38:48;100884.91;;;18.41;nan
37694;BME280;23531;50.122;8.644;2022-09-01T01:40:51;100883.53;;;18.38;nan
37694;BME280;23531;50.122;8.644;2022-09-01T01:42:54;100882.53;;;18.44;nan
37694;BME280;23531;50.122;8.644;2022-09-01T01:44:56;100875.91;;;18.40;nan
37694;BME280;23531;50.122;8.644;2022-09-01T01:46:57;100882.97;;;18.36;nan
37694;BME280;23531;50.122;8.644;2022-09-01T01:48:59;100882.88;;;18.31;nan
37694;BME280;23531;50.122;8.644;2022-09-01T01:51:03;100881.41;;;18.24;nan
37694;BME280;23531;50.122;8.644;2022-09-01T01:53:06;100879.03;;;18.27;nan
37694;BME280;23531;50.122;8.644;2022-09-01T01:55:09;100879.56;;;18.29;nan
37694;BME280;23531;50.122;8.644;2022-09-01T01:57:13;100882.81;;;18.26;nan
37694;BME280;23531;50.122;8.644;2022-09-01T01:59:17;100875.13;;;18.23;nan
37694;BME280;23531;50.122;8.644;2022-09-01T02:01:18;100883.13;;;18.30;nan
